Time,TemperatureF,DewpointF,PressureIn,WindDirection,WindDirectionDegrees,WindSpeedMPH,WindSpeedGustMPH,Humidity,HourlyPrecipIn,Conditions,Clouds,dailyrainin,SoftwareType,DateUTC
2013-03-31 00:03:00,51.0,-99.9,29.95,SW,215,0.0,0.0,67,0.00,,,0.00,,2013-03-31 04:03:00,
2013-03-31 00:13:00,51.0,40.0,29.95,SW,215,0.0,0.0,67,0.00,,,0.00,,2013-03-31 04:13:00,
2013-03-31 00:23:00,51.0,41.0,29.94,SW,215,0.0,0.0,68,0.00,,,0.00,,2013-03-31 04:23:00,
2013-03-31 00:33:00,51.0,41.0,29.93,SW,215,0.0,0.0,68,0.00,,,0.00,,2013-03-31 04:33:00,
2013-03-31 00:42:00,51.0,41.0,29.93,SW,215,0.0,0.0,68,0.00,,,0.00,,2013-03-31 04:42:00,
2013-03-31 00:53:00,51.0,40.0,29.93,SW,215,0.0,0.0,67,0.00,,,0.00,,2013-03-31 04:53:00,
2013-03-31 01:02:00,51.0,40.0,29.92,SW,215,0.0,0.0,66,0.00,,,0.00,,2013-03-31 05:02:00,
2013-03-31 01:12:00,51.0,40.0,29.92,SW,215,0.0,0.0,66,0.00,,,0.00,,2013-03-31 05:12:00,
2013-03-31 01:22:00,51.0,41.0,29.91,SW,215,0.0,0.0,68,0.00,,,0.00,,2013-03-31 05:22:00,
2013-03-31 01:32:00,50.0,40.0,29.91,SW,224,0.0,0.0,68,0.00,,,0.00,,2013-03-31 05:32:00,
2013-03-31 01:42:00,50.0,40.0,29.91,SW,224,0.0,0.0,68,0.00,,,0.00,,2013-03-31 05:42:00,
2013-03-31 01:53:00,50.0,41.0,29.90,SW,221,2.0,2.0,70,0.00,,,0.00,,2013-03-31 05:53:00,
2013-03-31 02:02:00,51.0,42.0,29.89,SSW,197,0.0,0.0,72,0.00,,,0.00,,2013-03-31 06:02:00,
2013-03-31 02:12:00,51.0,42.0,29.89,SSW,197,0.0,0.0,72,0.00,,,0.00,,2013-03-31 06:12:00,
2013-03-31 02:22:00,50.0,44.0,29.89,WSW,243,0.0,0.0,79,0.00,,,0.00,,2013-03-31 06:22:00,
2013-03-31 02:32:00,50.0,44.0,29.88,SW,233,2.0,3.0,80,0.00,,,0.00,,2013-03-31 06:32:00,
2013-03-31 02:42:00,50.0,44.0,29.88,SW,233,2.0,3.0,80,0.00,,,0.00,,2013-03-31 06:42:00,
2013-03-31 02:52:00,50.0,44.0,29.88,SW,221,3.0,0.0,80,0.00,,,0.00,,2013-03-31 06:52:00,
2013-03-31 03:02:00,49.0,44.0,29.88,SW,236,3.0,3.0,82,0.00,,,0.00,,2013-03-31 07:02:00,
2013-03-31 03:12:00,49.0,44.0,29.88,SW,236,3.0,3.0,82,0.00,,,0.00,,2013-03-31 07:12:00,
2013-03-31 03:22:00,49.0,46.0,29.87,SW,219,2.0,2.0,88,0.00,,,0.00,,2013-03-31 07:22:00,
2013-03-31 03:33:00,48.0,47.0,29.86,SSW,200,1.0,0.0,95,0.00,,,0.00,,2013-03-31 07:33:00,
2013-03-31 03:43:00,48.0,47.0,29.86,SSW,200,1.0,0.0,95,0.00,,,0.00,,2013-03-31 07:43:00,
2013-03-31 03:53:00,47.0,46.0,29.85,SSW,212,1.0,0.0,96,0.00,,,0.00,,2013-03-31 07:53:00,
2013-03-31 04:02:00,47.0,46.0,29.85,SW,214,1.0,0.0,97,0.00,,,0.00,,2013-03-31 08:02:00,
2013-03-31 04:12:00,47.0,46.0,29.85,SW,214,1.0,0.0,97,0.00,,,0.00,,2013-03-31 08:12:00,
2013-03-31 04:22:00,47.0,46.0,29.84,SSW,200,1.0,0.0,98,0.00,,,0.00,,2013-03-31 08:22:00,
2013-03-31 04:32:00,46.0,46.0,29.83,SSW,204,0.0,0.0,100,0.03,,,0.00,,2013-03-31 08:32:00,
2013-03-31 04:42:00,46.0,46.0,29.83,SSW,204,0.0,0.0,100,0.03,,,0.00,,2013-03-31 08:42:00,
2013-03-31 04:52:00,47.0,47.0,29.83,SW,215,1.0,1.0,99,0.03,,,0.00,,2013-03-31 08:52:00,
2013-03-31 05:02:00,47.0,47.0,29.82,SW,233,1.0,4.0,100,0.03,,,0.00,,2013-03-31 09:02:00,
2013-03-31 05:12:00,47.0,47.0,29.82,SW,233,1.0,4.0,100,0.03,,,0.00,,2013-03-31 09:12:00,
2013-03-31 05:22:00,47.0,47.0,29.81,SW,233,2.0,0.0,100,0.03,,,0.00,,2013-03-31 09:22:00,
2013-03-31 05:33:00,47.0,47.0,29.80,SW,232,1.0,3.0,100,0.02,,,0.00,,2013-03-31 09:33:00,
2013-03-31 05:42:00,47.0,47.0,29.80,SW,232,1.0,3.0,100,0.02,,,0.00,,2013-03-31 09:42:00,
2013-03-31 05:53:00,47.0,47.0,29.80,SSW,204,0.0,0.0,100,0.02,,,0.00,,2013-03-31 09:53:00,
2013-03-31 06:03:00,47.0,47.0,29.79,SW,219,0.0,0.0,100,0.02,,,0.00,,2013-03-31 10:03:00,
2013-03-31 06:13:00,47.0,47.0,29.79,SW,219,0.0,0.0,100,0.02,,,0.00,,2013-03-31 10:13:00,
2013-03-31 06:24:00,47.0,47.0,29.78,SW,225,1.0,0.0,100,0.02,,,0.00,,2013-03-31 10:24:00,
2013-03-31 06:32:00,48.0,48.0,29.78,SSW,207,0.0,0.0,100,0.02,,,0.00,,2013-03-31 10:32:00,
2013-03-31 06:42:00,48.0,48.0,29.78,SSW,207,0.0,0.0,100,0.02,,,0.00,,2013-03-31 10:42:00,
2013-03-31 06:53:00,48.0,48.0,29.78,SW,214,0.0,0.0,100,0.02,,,0.00,,2013-03-31 10:53:00,
2013-03-31 07:02:00,47.0,47.0,29.77,SW,236,1.0,1.0,100,0.02,,,0.00,,2013-03-31 11:02:00,
2013-03-31 07:12:00,47.0,47.0,29.77,SW,236,1.0,1.0,100,0.02,,,0.00,,2013-03-31 11:12:00,
2013-03-31 07:23:00,48.0,48.0,29.78,SW,229,2.0,2.0,100,0.03,,,0.00,,2013-03-31 11:23:00,
2013-03-31 07:32:00,48.0,48.0,29.78,SW,226,0.0,4.0,100,0.03,,,0.00,,2013-03-31 11:32:00,
2013-03-31 07:42:00,48.0,48.0,29.78,SW,226,0.0,4.0,100,0.03,,,0.00,,2013-03-31 11:42:00,
2013-03-31 07:53:00,48.0,48.0,29.78,SW,231,0.0,3.0,100,0.03,,,0.00,,2013-03-31 11:53:00,
2013-03-31 08:03:00,48.0,48.0,29.78,SSW,207,0.0,0.0,100,0.03,,,0.00,,2013-03-31 12:03:00,
2013-03-31 08:12:00,48.0,48.0,29.78,SSW,207,0.0,0.0,100,0.03,,,0.00,,2013-03-31 12:12:00,
2013-03-31 08:22:00,48.0,48.0,29.78,SW,217,0.0,0.0,100,0.02,,,0.00,,2013-03-31 12:22:00,
2013-03-31 08:33:00,49.0,49.0,29.79,SW,231,2.0,3.0,100,0.02,,,0.00,,2013-03-31 12:33:00,
2013-03-31 08:42:00,49.0,49.0,29.79,SW,231,2.0,3.0,100,0.02,,,0.00,,2013-03-31 12:42:00,
2013-03-31 08:53:00,49.0,49.0,29.79,South,181,0.0,0.0,100,0.02,,,0.00,,2013-03-31 12:53:00,
2013-03-31 09:02:00,49.0,49.0,29.79,SW,225,0.0,3.0,100,0.02,,,0.00,,2013-03-31 13:02:00,
2013-03-31 09:12:00,49.0,49.0,29.79,SW,225,0.0,3.0,100,0.02,,,0.00,,2013-03-31 13:12:00,
2013-03-31 09:22:00,49.0,49.0,29.79,SW,214,0.0,0.0,100,0.01,,,0.00,,2013-03-31 13:22:00,
2013-03-31 09:32:00,50.0,50.0,29.79,SW,228,3.0,3.0,100,0.01,,,0.00,,2013-03-31 13:32:00,
2013-03-31 09:42:00,50.0,50.0,29.79,SW,228,3.0,3.0,100,0.01,,,0.00,,2013-03-31 13:42:00,
2013-03-31 09:53:00,50.0,50.0,29.79,SW,231,2.0,6.0,100,0.01,,,0.00,,2013-03-31 13:53:00,
2013-03-31 10:02:00,50.0,50.0,29.80,SW,217,2.0,2.0,100,0.01,,,0.00,,2013-03-31 14:02:00,
2013-03-31 10:12:00,50.0,50.0,29.80,SW,217,2.0,2.0,100,0.01,,,0.00,,2013-03-31 14:12:00,
2013-03-31 10:22:00,50.0,50.0,29.80,SW,231,1.0,5.0,100,0.01,,,0.00,,2013-03-31 14:22:00,
2013-03-31 10:32:00,50.0,50.0,29.80,WSW,255,3.0,4.0,100,0.02,,,0.00,,2013-03-31 14:32:00,
2013-03-31 10:42:00,50.0,50.0,29.80,WSW,255,3.0,4.0,100,0.02,,,0.00,,2013-03-31 14:42:00,
2013-03-31 10:52:00,50.0,50.0,29.80,West,281,6.0,6.0,100,0.02,,,0.00,,2013-03-31 14:52:00,
2013-03-31 11:03:00,50.0,50.0,29.80,West,278,3.0,3.0,100,0.02,,,0.00,,2013-03-31 15:03:00,
2013-03-31 11:13:00,50.0,50.0,29.80,West,278,3.0,3.0,100,0.02,,,0.00,,2013-03-31 15:13:00,
2013-03-31 11:22:00,50.0,50.0,29.80,SSW,200,4.0,0.0,100,0.01,,,0.00,,2013-03-31 15:22:00,
2013-03-31 11:33:00,50.0,50.0,29.80,SSW,212,4.0,4.0,100,0.01,,,0.00,,2013-03-31 15:33:00,
2013-03-31 11:43:00,50.0,50.0,29.80,SSW,212,4.0,4.0,100,0.01,,,0.00,,2013-03-31 15:43:00,
2013-03-31 11:54:00,50.0,50.0,29.82,SSW,197,4.0,4.0,100,0.01,,,0.00,,2013-03-31 15:54:00,
2013-03-31 12:03:00,50.0,50.0,29.82,WSW,238,2.0,3.0,100,0.01,,,0.00,,2013-03-31 16:03:00,
2013-03-31 12:13:00,50.0,50.0,29.82,WSW,238,2.0,3.0,100,0.01,,,0.00,,2013-03-31 16:13:00,
2013-03-31 12:23:00,50.0,50.0,29.82,NW,326,4.0,7.0,100,0.01,,,0.00,,2013-03-31 16:23:00,
2013-03-31 12:33:00,49.0,49.0,29.82,SW,222,3.0,3.0,100,0.01,,,0.00,,2013-03-31 16:33:00,
2013-03-31 12:43:00,49.0,49.0,29.82,SW,222,3.0,3.0,100,0.01,,,0.00,,2013-03-31 16:43:00,
2013-03-31 12:53:00,49.0,49.0,29.83,WSW,243,4.0,4.0,100,0.01,,,0.00,,2013-03-31 16:53:00,
2013-03-31 13:03:00,49.0,49.0,29.83,SW,232,4.0,4.0,100,0.01,,,0.00,,2013-03-31 17:03:00,
2013-03-31 13:12:00,49.0,49.0,29.83,SW,232,4.0,4.0,100,0.01,,,0.00,,2013-03-31 17:12:00,
2013-03-31 13:23:00,49.0,49.0,29.83,West,270,3.0,3.0,100,0.01,,,0.00,,2013-03-31 17:23:00,
2013-03-31 13:32:00,49.0,49.0,29.84,SW,221,3.0,4.0,100,0.01,,,0.00,,2013-03-31 17:32:00,
2013-03-31 13:43:00,49.0,49.0,29.84,SW,221,3.0,4.0,100,0.01,,,0.00,,2013-03-31 17:43:00,
2013-03-31 13:52:00,49.0,49.0,29.84,WSW,253,3.0,6.0,100,0.01,,,0.00,,2013-03-31 17:52:00,
2013-03-31 14:03:00,49.0,49.0,29.84,West,270,2.0,3.0,100,0.01,,,0.00,,2013-03-31 18:03:00,
2013-03-31 14:13:00,49.0,49.0,29.84,West,270,2.0,3.0,100,0.01,,,0.00,,2013-03-31 18:13:00,
2013-03-31 14:22:00,49.0,49.0,29.84,SW,233,3.0,3.0,100,0.01,,,0.00,,2013-03-31 18:22:00,
2013-03-31 14:32:00,49.0,49.0,29.85,SW,235,3.0,5.0,100,0.01,,,0.00,,2013-03-31 18:32:00,
2013-03-31 14:42:00,49.0,49.0,29.85,SW,235,3.0,5.0,100,0.01,,,0.00,,2013-03-31 18:42:00,
2013-03-31 14:53:00,49.0,49.0,29.85,West,270,4.0,6.0,100,0.01,,,0.00,,2013-03-31 18:53:00,
2013-03-31 15:03:00,50.0,50.0,29.85,SW,228,3.0,6.0,100,0.01,,,0.00,,2013-03-31 19:03:00,
2013-03-31 15:12:00,50.0,50.0,29.85,SW,228,3.0,6.0,100,0.01,,,0.00,,2013-03-31 19:12:00,
2013-03-31 15:22:00,50.0,50.0,29.84,West,271,4.0,4.0,99,0.00,,,0.00,,2013-03-31 19:22:00,
2013-03-31 15:33:00,50.0,49.0,29.85,WNW,287,3.0,5.0,98,0.00,,,0.00,,2013-03-31 19:33:00,
2013-03-31 15:43:00,50.0,49.0,29.85,WNW,287,3.0,5.0,98,0.00,,,0.00,,2013-03-31 19:43:00,
2013-03-31 15:54:00,51.0,50.0,29.84,SW,232,0.0,3.0,98,0.00,,,0.00,,2013-03-31 19:54:00,
2013-03-31 16:03:00,51.0,50.0,29.83,SSE,163,0.0,0.0,97,0.00,,,0.00,,2013-03-31 20:03:00,
2013-03-31 16:12:00,51.0,50.0,29.83,SSE,163,0.0,0.0,97,0.00,,,0.00,,2013-03-31 20:12:00,
2013-03-31 16:23:00,51.0,50.0,29.82,South,181,1.0,2.0,97,0.00,,,0.00,,2013-03-31 20:23:00,
2013-03-31 16:33:00,51.0,49.0,29.80,South,186,1.0,3.0,94,0.00,,,0.00,,2013-03-31 20:33:00,
2013-03-31 16:43:00,51.0,49.0,29.80,South,186,1.0,3.0,94,0.00,,,0.00,,2013-03-31 20:43:00,
2013-03-31 16:52:00,53.0,52.0,29.80,South,174,2.0,2.0,95,0.00,,,0.00,,2013-03-31 20:52:00,
2013-03-31 17:03:00,54.0,51.0,29.81,West,259,3.0,4.0,88,0.00,,,0.00,,2013-03-31 21:03:00,
2013-03-31 17:12:00,54.0,51.0,29.81,West,259,3.0,4.0,88,0.00,,,0.00,,2013-03-31 21:12:00,
2013-03-31 17:22:00,54.0,51.0,29.80,SW,219,2.0,2.0,89,0.00,,,0.00,,2013-03-31 21:22:00,
2013-03-31 17:34:00,55.0,51.0,29.79,SW,214,2.0,3.0,86,0.00,,,0.00,,2013-03-31 21:34:00,
2013-03-31 17:43:00,55.0,51.0,29.79,SW,214,2.0,3.0,86,0.00,,,0.00,,2013-03-31 21:43:00,
2013-03-31 17:54:00,55.0,51.0,29.79,SW,221,3.0,3.0,85,0.00,,,0.00,,2013-03-31 21:54:00,
2013-03-31 18:04:00,54.0,49.0,29.80,SW,236,2.0,3.0,82,0.00,,,0.00,,2013-03-31 22:04:00,
2013-03-31 18:13:00,54.0,49.0,29.80,SW,236,2.0,3.0,82,0.00,,,0.00,,2013-03-31 22:13:00,
2013-03-31 18:23:00,54.0,49.0,29.80,West,259,2.0,2.0,82,0.00,,,0.00,,2013-03-31 22:23:00,
2013-03-31 18:33:00,54.0,49.0,29.80,West,266,3.0,4.0,82,0.00,,,0.00,,2013-03-31 22:33:00,
2013-03-31 18:43:00,54.0,49.0,29.80,West,266,3.0,4.0,82,0.00,,,0.00,,2013-03-31 22:43:00,
2013-03-31 18:53:00,54.0,49.0,29.80,SW,224,1.0,0.0,82,0.00,,,0.00,,2013-03-31 22:53:00,
2013-03-31 19:03:00,54.0,48.0,29.81,SW,236,2.0,2.0,80,0.00,,,0.00,,2013-03-31 23:03:00,
2013-03-31 19:13:00,54.0,48.0,29.81,SW,236,2.0,2.0,80,0.00,,,0.00,,2013-03-31 23:13:00,
2013-03-31 19:22:00,54.0,48.0,29.81,WSW,253,1.0,1.0,81,0.00,,,0.00,,2013-03-31 23:22:00,
2013-03-31 19:32:00,54.0,48.0,29.81,SW,228,1.0,1.0,80,0.00,,,0.00,,2013-03-31 23:32:00,
2013-03-31 19:42:00,54.0,48.0,29.81,SW,228,1.0,1.0,80,0.00,,,0.00,,2013-03-31 23:42:00,
2013-03-31 19:53:00,53.0,47.0,29.82,WSW,249,4.0,4.0,81,0.00,,,0.00,,2013-03-31 23:53:00,
2013-03-31 20:02:00,53.0,48.0,29.82,WSW,250,2.0,2.0,82,0.00,,,0.00,,2013-04-01 00:02:00,
2013-03-31 20:13:00,53.0,48.0,29.82,WSW,250,2.0,2.0,82,0.00,,,0.00,,2013-04-01 00:13:00,
2013-03-31 20:22:00,53.0,48.0,29.81,WSW,239,0.0,0.0,83,0.00,,,0.00,,2013-04-01 00:22:00,
2013-03-31 20:32:00,52.0,48.0,29.82,West,277,1.0,2.0,85,0.00,,,0.00,,2013-04-01 00:32:00,
2013-03-31 20:43:00,52.0,48.0,29.82,West,277,1.0,2.0,85,0.00,,,0.00,,2013-04-01 00:43:00,
2013-03-31 20:53:00,51.0,47.0,29.82,West,260,0.0,0.0,86,0.00,,,0.00,,2013-04-01 00:53:00,
2013-03-31 21:03:00,51.0,47.0,29.82,West,260,0.0,0.0,87,0.00,,,0.00,,2013-04-01 01:03:00,
2013-03-31 21:12:00,51.0,47.0,29.82,West,260,0.0,0.0,87,0.00,,,0.00,,2013-04-01 01:12:00,
2013-03-31 21:23:00,50.0,47.0,29.82,West,264,0.0,0.0,88,0.00,,,0.00,,2013-04-01 01:23:00,
2013-03-31 21:32:00,50.0,47.0,29.83,West,264,0.0,0.0,89,0.00,,,0.00,,2013-04-01 01:32:00,
2013-03-31 21:42:00,50.0,47.0,29.83,West,264,0.0,0.0,89,0.00,,,0.00,,2013-04-01 01:42:00,
2013-03-31 21:52:00,49.0,46.0,29.83,West,264,0.0,0.0,91,0.00,,,0.00,,2013-04-01 01:52:00,
2013-03-31 22:03:00,49.0,47.0,29.83,West,264,0.0,0.0,92,0.00,,,0.00,,2013-04-01 02:03:00,
2013-03-31 22:13:00,49.0,47.0,29.83,West,264,0.0,0.0,92,0.00,,,0.00,,2013-04-01 02:13:00,
2013-03-31 22:23:00,49.0,47.0,29.83,WSW,253,1.0,0.0,94,0.00,,,0.00,,2013-04-01 02:23:00,
2013-03-31 22:33:00,48.0,47.0,29.83,WSW,256,0.0,0.0,95,0.00,,,0.00,,2013-04-01 02:33:00,
2013-03-31 22:42:00,48.0,47.0,29.83,WSW,256,0.0,0.0,95,0.00,,,0.00,,2013-04-01 02:42:00,
2013-03-31 22:53:00,48.0,47.0,29.84,WSW,250,0.0,0.0,95,0.00,,,0.00,,2013-04-01 02:53:00,
2013-03-31 23:03:00,48.0,47.0,29.84,WSW,250,0.0,0.0,95,0.00,,,0.00,,2013-04-01 03:03:00,
2013-03-31 23:12:00,48.0,47.0,29.84,WSW,250,0.0,0.0,95,0.00,,,0.00,,2013-04-01 03:12:00,
2013-03-31 23:23:00,47.0,46.0,29.84,WSW,250,0.0,0.0,96,0.00,,,0.00,,2013-04-01 03:23:00,
2013-03-31 23:34:00,47.0,46.0,29.84,WSW,250,0.0,0.0,96,0.00,,,0.00,,2013-04-01 03:34:00,
2013-03-31 23:43:00,47.0,46.0,29.84,WSW,250,0.0,0.0,96,0.00,,,0.00,,2013-04-01 03:43:00,
2013-03-31 23:53:00,47.0,46.0,29.83,WSW,250,0.0,0.0,96,0.00,,,0.00,,2013-04-01 03:53:00,